sensor_id;sensor_type;location;lat;lon;timestamp;P1;durP1;ratioP1;P2;durP2;ratioP2
32505;SDS011;18955;51.224;8.482;2022-12-07T00:01:13;2.97;;;2.67;;
32505;SDS011;18955;51.224;8.482;2022-12-07T00:03:41;3.30;;;3.00;;
32505;SDS011;18955;51.224;8.482;2022-12-07T00:06:09;2.65;;;2.45;;
32505;SDS011;18955;51.224;8.482;2022-12-07T00:08:38;2.55;;;2.20;;
32505;SDS011;18955;51.224;8.482;2022-12-07T00:11:05;2.30;;;2.00;;
32505;SDS011;18955;51.224;8.482;2022-12-07T00:13:36;2.10;;;1.90;;
32505;SDS011;18955;51.224;8.482;2022-12-07T00:16:07;2.15;;;1.98;;
32505;SDS011;18955;51.224;8.482;2022-12-07T00:18:35;3.67;;;1.95;;
32505;SDS011;18955;51.224;8.482;2022-12-07T00:21:06;2.30;;;2.10;;
32505;SDS011;18955;51.224;8.482;2022-12-07T00:23:35;2.65;;;2.45;;
32505;SDS011;18955;51.224;8.482;2022-12-07T00:26:05;1.73;;;1.48;;
32505;SDS011;18955;51.224;8.482;2022-12-07T00:28:40;2.30;;;2.10;;
32505;SDS011;18955;51.224;8.482;2022-12-07T00:33:35;2.75;;;2.50;;
32505;SDS011;18955;51.224;8.482;2022-12-07T00:36:05;2.63;;;2.40;;
32505;SDS011;18955;51.224;8.482;2022-12-07T00:38:35;2.83;;;2.53;;
32505;SDS011;18955;51.224;8.482;2022-12-07T00:41:07;2.83;;;2.58;;
32505;SDS011;18955;51.224;8.482;2022-12-07T00:43:37;2.97;;;2.63;;
32505;SDS011;18955;51.224;8.482;2022-12-07T00:46:04;2.58;;;2.35;;
32505;SDS011;18955;51.224;8.482;2022-12-07T00:48:31;2.30;;;2.00;;
32505;SDS011;18955;51.224;8.482;2022-12-07T00:50:57;3.80;;;2.50;;
32505;SDS011;18955;51.224;8.482;2022-12-07T00:53:23;2.38;;;2.17;;
32505;SDS011;18955;51.224;8.482;2022-12-07T00:55:50;3.00;;;2.40;;
32505;SDS011;18955;51.224;8.482;2022-12-07T00:58:18;2.90;;;2.60;;
32505;SDS011;18955;51.224;8.482;2022-12-07T01:00:45;3.78;;;3.35;;
32505;SDS011;18955;51.224;8.482;2022-12-07T01:03:12;4.00;;;3.00;;
32505;SDS011;18955;51.224;8.482;2022-12-07T01:05:39;4.38;;;3.25;;
32505;SDS011;18955;51.224;8.482;2022-12-07T01:08:06;3.97;;;3.58;;
32505;SDS011;18955;51.224;8.482;2022-12-07T01:10:32;3.90;;;3.47;;
32505;SDS011;18955;51.224;8.482;2022-12-07T01:12:58;3.35;;;3.05;;
32505;SDS011;18955;51.224;8.482;2022-12-07T01:15:25;3.60;;;3.20;;
32505;SDS011;18955;51.224;8.482;2022-12-07T01:20:18;5.88;;;3.97;;
32505;SDS011;18955;51.224;8.482;2022-12-07T01:22:44;6.65;;;4.80;;
32505;SDS011;18955;51.224;8.482;2022-12-07T01:25:10;5.07;;;3.75;;
32505;SDS011;18955;51.224;8.482;2022-12-07T01:30:04;5.45;;;4.53;;
32505;SDS011;18955;51.224;8.482;2022-12-07T01:32:32;7.00;;;4.75;;
32505;SDS011;18955;51.224;8.482;2022-12-07T01:34:59;7.78;;;4.85;;
32505;SDS011;18955;51.224;8.482;2022-12-07T01:37:25;6.03;;;5.13;;
32505;SDS011;18955;51.224;8.482;2022-12-07T01:39:52;7.57;;;5.93;;
32505;SDS011;18955;51.224;8.482;2022-12-07T01:42:18;4.75;;;4.15;;
32505;SDS011;18955;51.224;8.482;2022-12-07T01:47:52;8.73;;;6.50;;
32505;SDS011;18955;51.224;8.482;2022-12-07T01:50:21;11.40;;;7.57;;
32505;SDS011;18955;51.224;8.482;2022-12-07T01:52:51;11.93;;;9.70;;
32505;SDS011;18955;51.224;8.482;2022-12-07T01:55:19;10.30;;;8.38;;
32505;SDS011;18955;51.224;8.482;2022-12-07T01:57:48;9.13;;;6.50;;
32505;SDS011;18955;51.224;8.482;2022-12-07T02:00:17;7.82;;;6.30;;
32505;SDS011;18955;51.224;8.482;2022-12-07T02:03:29;9.43;;;7.80;;
32505;SDS011;18955;51.224;8.482;2022-12-07T02:05:34;10.68;;;7.68;;
32505;SDS011;18955;51.224;8.482;2022-12-07T02:08:02;9.90;;;8.40;;
32505;SDS011;18955;51.224;8.482;2022-12-07T02:10:30;14.13;;;8.55;;
32505;SDS011;18955;51.224;8.482;2022-12-07T02:13:07;9.15;;;7.53;;
32505;SDS011;18955;51.224;8.482;2022-12-07T02:18:09;9.02;;;7.40;;
32505;SDS011;18955;51.224;8.482;2022-12-07T02:29:13;10.93;;;8.55;;
32505;SDS011;18955;51.224;8.482;2022-12-07T02:31:53;10.77;;;9.23;;
32505;SDS011;18955;51.224;8.482;2022-12-07T02:34:34;9.10;;;6.88;;
32505;SDS011;18955;51.224;8.482;2022-12-07T02:37:17;9.57;;;8.20;;
32505;SDS011;18955;51.224;8.482;2022-12-07T02:42:42;9.68;;;7.20;;
32505;SDS011;18955;51.224;8.482;2022-12-07T02:45:13;10.57;;;7.75;;
32505;SDS011;18955;51.224;8.482;2022-12-07T02:47:43;7.13;;;5.78;;
32505;SDS011;18955;51.224;8.482;2022-12-07T02:50:12;6.68;;;5.18;;
32505;SDS011;18955;51.224;8.482;2022-12-07T02:52:38;8.23;;;5.90;;
32505;SDS011;18955;51.224;8.482;2022-12-07T02:55:04;5.93;;;4.95;;
32505;SDS011;18955;51.224;8.482;2022-12-07T03:00:21;5.25;;;4.72;;
32505;SDS011;18955;51.224;8.482;2022-12-07T03:02:56;6.20;;;5.25;;
32505;SDS011;18955;51.224;8.482;2022-12-07T03:08:27;4.43;;;4.03;;
32505;SDS011;18955;51.224;8.482;2022-12-07T03:11:12;8.13;;;4.25;;
32505;SDS011;18955;51.224;8.482;2022-12-07T03:16:15;5.25;;;3.85;;
32505;SDS011;18955;51.224;8.482;2022-12-07T03:18:55;4.47;;;3.88;;
32505;SDS011;18955;51.224;8.482;2022-12-07T03:21:27;6.30;;;4.25;;
32505;SDS011;18955;51.224;8.482;2022-12-07T03:24:00;5.88;;;4.68;;
32505;SDS011;18955;51.224;8.482;2022-12-07T03:26:36;8.35;;;5.20;;
32505;SDS011;18955;51.224;8.482;2022-12-07T03:29:14;6.57;;;5.40;;
32505;SDS011;18955;51.224;8.482;2022-12-07T03:31:51;7.38;;;5.05;;
32505;SDS011;18955;51.224;8.482;2022-12-07T03:34:41;5.93;;;4.63;;
32505;SDS011;18955;51.224;8.482;2022-12-07T03:40:28;7.70;;;4.90;;
32505;SDS011;18955;51.224;8.482;2022-12-07T03:43:01;7.40;;;5.15;;
32505;SDS011;18955;51.224;8.482;2022-12-07T03:45:31;11.13;;;5.72;;
32505;SDS011;18955;51.224;8.482;2022-12-07T03:48:15;7.32;;;5.72;;
32505;SDS011;18955;51.224;8.482;2022-12-07T03:56:24;7.60;;;5.38;;
32505;SDS011;18955;51.224;8.482;2022-12-07T03:58:53;8.73;;;6.05;;
32505;SDS011;18955;51.224;8.482;2022-12-07T04:01:20;7.75;;;5.50;;
32505;SDS011;18955;51.224;8.482;2022-12-07T04:03:48;9.38;;;5.78;;
32505;SDS011;18955;51.224;8.482;2022-12-07T04:06:14;6.05;;;4.30;;
32505;SDS011;18955;51.224;8.482;2022-12-07T04:08:40;5.38;;;4.53;;
32505;SDS011;18955;51.224;8.482;2022-12-07T04:11:06;6.13;;;4.60;;
32505;SDS011;18955;51.224;8.482;2022-12-07T04:13:32;5.90;;;4.05;;
32505;SDS011;18955;51.224;8.482;2022-12-07T04:16:19;4.78;;;3.40;;
32505;SDS011;18955;51.224;8.482;2022-12-07T04:18:45;4.07;;;2.63;;
32505;SDS011;18955;51.224;8.482;2022-12-07T04:21:11;3.92;;;3.53;;
32505;SDS011;18955;51.224;8.482;2022-12-07T04:23:37;5.55;;;4.40;;
32505;SDS011;18955;51.224;8.482;2022-12-07T04:26:04;9.35;;;5.35;;
32505;SDS011;18955;51.224;8.482;2022-12-07T04:28:30;9.98;;;5.88;;
32505;SDS011;18955;51.224;8.482;2022-12-07T04:30:56;12.43;;;6.28;;
32505;SDS011;18955;51.224;8.482;2022-12-07T04:33:22;9.68;;;6.25;;
32505;SDS011;18955;51.224;8.482;2022-12-07T04:35:48;11.50;;;5.50;;
32505;SDS011;18955;51.224;8.482;2022-12-07T04:38:14;11.25;;;5.68;;
32505;SDS011;18955;51.224;8.482;2022-12-07T04:40:41;8.98;;;4.75;;
32505;SDS011;18955;51.224;8.482;2022-12-07T04:43:07;12.52;;;6.35;;
32505;SDS011;18955;51.224;8.482;2022-12-07T04:45:33;8.00;;;4.82;;
32505;SDS011;18955;51.224;8.482;2022-12-07T04:47:59;10.57;;;5.05;;
32505;SDS011;18955;51.224;8.482;2022-12-07T04:50:25;10.43;;;6.10;;
32505;SDS011;18955;51.224;8.482;2022-12-07T04:52:51;13.57;;;6.32;;
32505;SDS011;18955;51.224;8.482;2022-12-07T04:55:18;11.48;;;7.13;;
32505;SDS011;18955;51.224;8.482;2022-12-07T04:57:44;15.15;;;6.75;;
32505;SDS011;18955;51.224;8.482;2022-12-07T05:00:10;13.93;;;7.03;;
32505;SDS011;18955;51.224;8.482;2022-12-07T05:02:36;12.80;;;6.70;;
32505;SDS011;18955;51.224;8.482;2022-12-07T05:05:03;9.85;;;4.50;;
32505;SDS011;18955;51.224;8.482;2022-12-07T05:07:29;10.70;;;6.15;;
32505;SDS011;18955;51.224;8.482;2022-12-07T05:09:55;10.40;;;5.93;;
32505;SDS011;18955;51.224;8.482;2022-12-07T05:12:21;8.30;;;4.55;;
32505;SDS011;18955;51.224;8.482;2022-12-07T05:14:47;11.63;;;6.43;;
32505;SDS011;18955;51.224;8.482;2022-12-07T05:17:13;15.00;;;7.65;;
32505;SDS011;18955;51.224;8.482;2022-12-07T05:19:40;9.27;;;6.32;;
32505;SDS011;18955;51.224;8.482;2022-12-07T05:22:06;11.75;;;5.32;;
32505;SDS011;18955;51.224;8.482;2022-12-07T05:24:32;14.32;;;5.82;;
32505;SDS011;18955;51.224;8.482;2022-12-07T05:26:58;9.57;;;4.38;;
32505;SDS011;18955;51.224;8.482;2022-12-07T05:29:24;8.68;;;5.03;;
32505;SDS011;18955;51.224;8.482;2022-12-07T05:31:51;9.23;;;5.45;;
32505;SDS011;18955;51.224;8.482;2022-12-07T05:34:17;7.40;;;3.72;;
32505;SDS011;18955;51.224;8.482;2022-12-07T05:36:43;10.20;;;3.58;;
32505;SDS011;18955;51.224;8.482;2022-12-07T05:39:09;16.40;;;5.50;;
32505;SDS011;18955;51.224;8.482;2022-12-07T05:41:36;8.85;;;5.47;;
32505;SDS011;18955;51.224;8.482;2022-12-07T05:44:20;6.03;;;3.67;;
32505;SDS011;18955;51.224;8.482;2022-12-07T05:46:46;9.60;;;4.32;;
32505;SDS011;18955;51.224;8.482;2022-12-07T05:49:13;6.43;;;3.33;;
32505;SDS011;18955;51.224;8.482;2022-12-07T05:51:39;8.50;;;4.10;;
32505;SDS011;18955;51.224;8.482;2022-12-07T05:54:05;7.63;;;3.90;;
32505;SDS011;18955;51.224;8.482;2022-12-07T05:56:31;7.55;;;3.95;;
32505;SDS011;18955;51.224;8.482;2022-12-07T05:58:57;10.88;;;3.90;;
32505;SDS011;18955;51.224;8.482;2022-12-07T06:01:42;13.88;;;5.00;;
32505;SDS011;18955;51.224;8.482;2022-12-07T06:04:09;9.13;;;3.78;;
32505;SDS011;18955;51.224;8.482;2022-12-07T06:06:35;13.52;;;4.50;;
32505;SDS011;18955;51.224;8.482;2022-12-07T06:09:02;7.57;;;4.32;;
32505;SDS011;18955;51.224;8.482;2022-12-07T06:11:29;12.63;;;4.68;;
32505;SDS011;18955;51.224;8.482;2022-12-07T06:14:13;9.02;;;4.15;;
32505;SDS011;18955;51.224;8.482;2022-12-07T06:16:40;10.75;;;4.22;;
32505;SDS011;18955;51.224;8.482;2022-12-07T06:19:06;9.10;;;4.18;;
32505;SDS011;18955;51.224;8.482;2022-12-07T06:21:32;12.98;;;4.22;;
32505;SDS011;18955;51.224;8.482;2022-12-07T06:23:59;10.07;;;3.75;;
32505;SDS011;18955;51.224;8.482;2022-12-07T06:26:25;13.35;;;4.13;;
32505;SDS011;18955;51.224;8.482;2022-12-07T06:28:51;9.38;;;3.33;;
32505;SDS011;18955;51.224;8.482;2022-12-07T06:31:17;9.65;;;3.90;;
32505;SDS011;18955;51.224;8.482;2022-12-07T06:33:43;5.60;;;2.40;;
32505;SDS011;18955;51.224;8.482;2022-12-07T06:36:10;11.48;;;3.90;;
32505;SDS011;18955;51.224;8.482;2022-12-07T06:38:36;9.88;;;3.55;;
32505;SDS011;18955;51.224;8.482;2022-12-07T06:41:02;11.15;;;3.60;;
32505;SDS011;18955;51.224;8.482;2022-12-07T06:43:29;13.98;;;3.75;;
32505;SDS011;18955;51.224;8.482;2022-12-07T06:45:55;4.95;;;2.90;;
32505;SDS011;18955;51.224;8.482;2022-12-07T06:48:21;9.10;;;3.47;;
32505;SDS011;18955;51.224;8.482;2022-12-07T06:50:48;6.78;;;2.70;;
32505;SDS011;18955;51.224;8.482;2022-12-07T06:53:14;5.38;;;3.20;;
32505;SDS011;18955;51.224;8.482;2022-12-07T06:55:40;4.30;;;2.13;;
32505;SDS011;18955;51.224;8.482;2022-12-07T06:58:07;9.48;;;3.05;;
32505;SDS011;18955;51.224;8.482;2022-12-07T07:00:34;4.60;;;2.10;;
32505;SDS011;18955;51.224;8.482;2022-12-07T07:03:00;4.85;;;3.08;;
32505;SDS011;18955;51.224;8.482;2022-12-07T07:05:27;3.97;;;2.88;;
32505;SDS011;18955;51.224;8.482;2022-12-07T07:07:53;9.32;;;2.85;;
32505;SDS011;18955;51.224;8.482;2022-12-07T07:10:19;9.30;;;3.75;;
32505;SDS011;18955;51.224;8.482;2022-12-07T07:12:45;4.03;;;2.45;;
32505;SDS011;18955;51.224;8.482;2022-12-07T07:15:11;4.82;;;3.20;;
32505;SDS011;18955;51.224;8.482;2022-12-07T07:17:38;7.63;;;2.75;;
32505;SDS011;18955;51.224;8.482;2022-12-07T07:20:04;6.20;;;3.72;;
32505;SDS011;18955;51.224;8.482;2022-12-07T07:22:31;7.65;;;2.60;;
32505;SDS011;18955;51.224;8.482;2022-12-07T07:24:57;13.43;;;3.65;;
32505;SDS011;18955;51.224;8.482;2022-12-07T07:27:24;7.80;;;3.63;;
32505;SDS011;18955;51.224;8.482;2022-12-07T07:29:50;8.63;;;3.13;;
32505;SDS011;18955;51.224;8.482;2022-12-07T07:32:16;5.53;;;2.53;;
32505;SDS011;18955;51.224;8.482;2022-12-07T07:34:42;6.45;;;3.00;;
32505;SDS011;18955;51.224;8.482;2022-12-07T07:37:08;4.72;;;2.60;;
32505;SDS011;18955;51.224;8.482;2022-12-07T07:39:36;9.68;;;3.40;;
32505;SDS011;18955;51.224;8.482;2022-12-07T07:42:02;8.98;;;3.33;;
32505;SDS011;18955;51.224;8.482;2022-12-07T07:44:32;11.73;;;3.47;;
32505;SDS011;18955;51.224;8.482;2022-12-07T07:46:58;10.48;;;2.70;;
32505;SDS011;18955;51.224;8.482;2022-12-07T07:49:25;9.90;;;3.35;;
32505;SDS011;18955;51.224;8.482;2022-12-07T07:51:51;6.65;;;2.63;;
32505;SDS011;18955;51.224;8.482;2022-12-07T07:54:17;9.05;;;4.00;;
32505;SDS011;18955;51.224;8.482;2022-12-07T07:56:43;13.73;;;3.47;;
32505;SDS011;18955;51.224;8.482;2022-12-07T07:59:10;11.15;;;3.85;;
32505;SDS011;18955;51.224;8.482;2022-12-07T08:01:36;12.85;;;3.08;;
32505;SDS011;18955;51.224;8.482;2022-12-07T08:04:02;7.53;;;3.45;;
32505;SDS011;18955;51.224;8.482;2022-12-07T08:06:28;10.65;;;3.45;;
32505;SDS011;18955;51.224;8.482;2022-12-07T08:08:54;4.45;;;2.35;;
32505;SDS011;18955;51.224;8.482;2022-12-07T08:11:20;7.45;;;2.90;;
32505;SDS011;18955;51.224;8.482;2022-12-07T08:13:47;4.43;;;2.13;;
32505;SDS011;18955;51.224;8.482;2022-12-07T08:16:13;6.38;;;3.10;;
32505;SDS011;18955;51.224;8.482;2022-12-07T08:18:40;6.38;;;2.85;;
32505;SDS011;18955;51.224;8.482;2022-12-07T08:21:09;7.35;;;3.20;;
32505;SDS011;18955;51.224;8.482;2022-12-07T08:23:37;5.05;;;3.53;;
32505;SDS011;18955;51.224;8.482;2022-12-07T08:26:04;3.80;;;2.42;;
32505;SDS011;18955;51.224;8.482;2022-12-07T08:28:32;5.50;;;2.80;;
32505;SDS011;18955;51.224;8.482;2022-12-07T08:31:02;4.88;;;1.88;;
32505;SDS011;18955;51.224;8.482;2022-12-07T08:33:30;5.40;;;2.75;;
32505;SDS011;18955;51.224;8.482;2022-12-07T08:36:09;3.20;;;1.88;;
32505;SDS011;18955;51.224;8.482;2022-12-07T08:38:38;5.80;;;3.67;;
32505;SDS011;18955;51.224;8.482;2022-12-07T08:41:05;8.55;;;3.67;;
32505;SDS011;18955;51.224;8.482;2022-12-07T08:43:32;10.48;;;4.05;;
32505;SDS011;18955;51.224;8.482;2022-12-07T08:48:25;8.07;;;3.70;;
32505;SDS011;18955;51.224;8.482;2022-12-07T08:50:51;10.57;;;4.40;;
32505;SDS011;18955;51.224;8.482;2022-12-07T08:53:18;11.15;;;3.17;;
32505;SDS011;18955;51.224;8.482;2022-12-07T08:55:44;7.97;;;2.30;;
32505;SDS011;18955;51.224;8.482;2022-12-07T08:58:12;9.02;;;3.42;;
32505;SDS011;18955;51.224;8.482;2022-12-07T09:00:38;9.13;;;3.30;;
32505;SDS011;18955;51.224;8.482;2022-12-07T09:03:04;11.68;;;3.30;;
32505;SDS011;18955;51.224;8.482;2022-12-07T09:05:31;8.48;;;3.47;;
32505;SDS011;18955;51.224;8.482;2022-12-07T09:07:59;7.85;;;3.05;;
32505;SDS011;18955;51.224;8.482;2022-12-07T09:10:27;13.52;;;3.55;;
32505;SDS011;18955;51.224;8.482;2022-12-07T09:12:54;6.75;;;3.63;;
32505;SDS011;18955;51.224;8.482;2022-12-07T09:15:21;6.47;;;2.88;;
32505;SDS011;18955;51.224;8.482;2022-12-07T09:17:47;5.03;;;1.95;;
32505;SDS011;18955;51.224;8.482;2022-12-07T09:20:13;7.55;;;3.67;;
32505;SDS011;18955;51.224;8.482;2022-12-07T09:22:39;8.40;;;2.70;;
32505;SDS011;18955;51.224;8.482;2022-12-07T09:25:05;5.32;;;2.45;;
32505;SDS011;18955;51.224;8.482;2022-12-07T09:27:32;4.78;;;2.40;;
32505;SDS011;18955;51.224;8.482;2022-12-07T09:29:58;10.48;;;2.75;;
32505;SDS011;18955;51.224;8.482;2022-12-07T09:32:25;3.20;;;1.80;;
32505;SDS011;18955;51.224;8.482;2022-12-07T09:34:51;4.47;;;1.98;;
32505;SDS011;18955;51.224;8.482;2022-12-07T09:37:17;7.45;;;3.05;;
32505;SDS011;18955;51.224;8.482;2022-12-07T09:39:44;4.28;;;2.33;;
32505;SDS011;18955;51.224;8.482;2022-12-07T09:42:10;4.80;;;2.42;;
32505;SDS011;18955;51.224;8.482;2022-12-07T09:44:53;4.45;;;2.63;;
32505;SDS011;18955;51.224;8.482;2022-12-07T09:47:19;5.05;;;2.65;;
32505;SDS011;18955;51.224;8.482;2022-12-07T09:49:45;5.15;;;3.35;;
32505;SDS011;18955;51.224;8.482;2022-12-07T09:54:40;8.38;;;3.70;;
32505;SDS011;18955;51.224;8.482;2022-12-07T09:57:10;9.80;;;3.63;;
32505;SDS011;18955;51.224;8.482;2022-12-07T09:59:38;8.88;;;3.38;;
32505;SDS011;18955;51.224;8.482;2022-12-07T10:02:33;9.77;;;3.85;;
32505;SDS011;18955;51.224;8.482;2022-12-07T10:04:52;6.35;;;3.00;;
32505;SDS011;18955;51.224;8.482;2022-12-07T10:07:18;9.90;;;3.83;;
32505;SDS011;18955;51.224;8.482;2022-12-07T10:09:45;10.40;;;3.60;;
32505;SDS011;18955;51.224;8.482;2022-12-07T10:12:11;6.57;;;3.10;;
32505;SDS011;18955;51.224;8.482;2022-12-07T10:14:40;10.48;;;3.60;;
32505;SDS011;18955;51.224;8.482;2022-12-07T10:22:55;7.63;;;3.42;;
32505;SDS011;18955;51.224;8.482;2022-12-07T10:25:31;12.73;;;3.03;;
32505;SDS011;18955;51.224;8.482;2022-12-07T10:28:00;6.55;;;2.22;;
32505;SDS011;18955;51.224;8.482;2022-12-07T10:30:46;9.75;;;3.00;;
32505;SDS011;18955;51.224;8.482;2022-12-07T10:36:24;8.30;;;2.65;;
32505;SDS011;18955;51.224;8.482;2022-12-07T10:39:02;11.93;;;2.92;;
32505;SDS011;18955;51.224;8.482;2022-12-07T10:42:01;8.68;;;2.75;;
32505;SDS011;18955;51.224;8.482;2022-12-07T10:44:30;7.25;;;2.20;;
32505;SDS011;18955;51.224;8.482;2022-12-07T10:49:39;11.27;;;2.80;;
32505;SDS011;18955;51.224;8.482;2022-12-07T10:52:31;10.82;;;2.53;;
32505;SDS011;18955;51.224;8.482;2022-12-07T11:00:24;6.55;;;2.13;;
32505;SDS011;18955;51.224;8.482;2022-12-07T11:08:51;7.07;;;2.08;;
32505;SDS011;18955;51.224;8.482;2022-12-07T11:11:32;6.97;;;2.35;;
32505;SDS011;18955;51.224;8.482;2022-12-07T11:27:48;11.77;;;2.20;;
32505;SDS011;18955;51.224;8.482;2022-12-07T11:38:36;6.18;;;2.40;;
32505;SDS011;18955;51.224;8.482;2022-12-07T11:41:08;6.45;;;3.45;;
32505;SDS011;18955;51.224;8.482;2022-12-07T11:46:19;7.78;;;3.03;;
32505;SDS011;18955;51.224;8.482;2022-12-07T11:51:49;6.07;;;2.65;;
32505;SDS011;18955;51.224;8.482;2022-12-07T11:54:20;5.32;;;2.38;;
32505;SDS011;18955;51.224;8.482;2022-12-07T11:56:51;8.70;;;2.45;;
32505;SDS011;18955;51.224;8.482;2022-12-07T12:05:02;6.30;;;2.60;;
32505;SDS011;18955;51.224;8.482;2022-12-07T12:07:32;8.07;;;2.85;;
32505;SDS011;18955;51.224;8.482;2022-12-07T12:10:02;10.25;;;2.83;;
32505;SDS011;18955;51.224;8.482;2022-12-07T12:23:16;5.95;;;1.95;;
32505;SDS011;18955;51.224;8.482;2022-12-07T12:26:02;13.57;;;2.20;;
32505;SDS011;18955;51.224;8.482;2022-12-07T12:31:13;5.45;;;2.72;;
32505;SDS011;18955;51.224;8.482;2022-12-07T12:33:43;5.38;;;2.22;;
32505;SDS011;18955;51.224;8.482;2022-12-07T12:38:47;8.20;;;2.40;;
32505;SDS011;18955;51.224;8.482;2022-12-07T12:44:03;8.60;;;2.88;;
32505;SDS011;18955;51.224;8.482;2022-12-07T12:51:50;8.55;;;2.88;;
32505;SDS011;18955;51.224;8.482;2022-12-07T13:02:24;4.75;;;2.35;;
32505;SDS011;18955;51.224;8.482;2022-12-07T13:10:37;7.38;;;2.72;;
32505;SDS011;18955;51.224;8.482;2022-12-07T13:15:41;4.90;;;2.30;;
32505;SDS011;18955;51.224;8.482;2022-12-07T13:33:55;7.00;;;3.38;;
32505;SDS011;18955;51.224;8.482;2022-12-07T13:36:39;5.43;;;3.05;;
32505;SDS011;18955;51.224;8.482;2022-12-07T13:39:11;10.07;;;3.63;;
32505;SDS011;18955;51.224;8.482;2022-12-07T13:41:43;8.77;;;3.30;;
32505;SDS011;18955;51.224;8.482;2022-12-07T13:44:17;7.15;;;3.47;;
32505;SDS011;18955;51.224;8.482;2022-12-07T13:49:32;9.90;;;3.47;;
32505;SDS011;18955;51.224;8.482;2022-12-07T13:52:13;8.02;;;3.90;;
32505;SDS011;18955;51.224;8.482;2022-12-07T13:54:44;9.45;;;3.40;;
32505;SDS011;18955;51.224;8.482;2022-12-07T13:57:31;9.02;;;3.38;;
32505;SDS011;18955;51.224;8.482;2022-12-07T14:00:01;8.30;;;3.28;;
32505;SDS011;18955;51.224;8.482;2022-12-07T14:02:31;12.05;;;3.33;;
32505;SDS011;18955;51.224;8.482;2022-12-07T14:10:27;5.43;;;2.50;;
32505;SDS011;18955;51.224;8.482;2022-12-07T14:12:59;5.03;;;1.80;;
32505;SDS011;18955;51.224;8.482;2022-12-07T14:15:28;4.68;;;2.50;;
32505;SDS011;18955;51.224;8.482;2022-12-07T14:17:56;9.50;;;2.70;;
32505;SDS011;18955;51.224;8.482;2022-12-07T14:20:34;6.80;;;2.22;;
32505;SDS011;18955;51.224;8.482;2022-12-07T14:23:05;4.63;;;2.33;;
32505;SDS011;18955;51.224;8.482;2022-12-07T14:25:49;4.95;;;2.63;;
32505;SDS011;18955;51.224;8.482;2022-12-07T14:28:36;5.03;;;2.50;;
32505;SDS011;18955;51.224;8.482;2022-12-07T14:31:03;6.60;;;3.33;;
32505;SDS011;18955;51.224;8.482;2022-12-07T14:33:35;7.05;;;3.13;;
32505;SDS011;18955;51.224;8.482;2022-12-07T14:36:01;8.43;;;3.05;;
32505;SDS011;18955;51.224;8.482;2022-12-07T14:38:27;8.55;;;3.22;;
32505;SDS011;18955;51.224;8.482;2022-12-07T14:40:53;9.65;;;3.88;;
32505;SDS011;18955;51.224;8.482;2022-12-07T14:43:41;6.00;;;3.38;;
32505;SDS011;18955;51.224;8.482;2022-12-07T14:46:07;9.30;;;3.55;;
32505;SDS011;18955;51.224;8.482;2022-12-07T14:48:34;17.65;;;3.55;;
32505;SDS011;18955;51.224;8.482;2022-12-07T14:51:01;9.10;;;3.20;;
32505;SDS011;18955;51.224;8.482;2022-12-07T14:53:35;6.32;;;2.67;;
32505;SDS011;18955;51.224;8.482;2022-12-07T14:56:04;10.18;;;2.95;;
32505;SDS011;18955;51.224;8.482;2022-12-07T14:58:31;10.10;;;3.80;;
32505;SDS011;18955;51.224;8.482;2022-12-07T15:00:58;7.35;;;3.35;;
32505;SDS011;18955;51.224;8.482;2022-12-07T15:03:25;11.57;;;3.15;;
32505;SDS011;18955;51.224;8.482;2022-12-07T15:05:51;10.48;;;3.40;;
32505;SDS011;18955;51.224;8.482;2022-12-07T15:08:17;4.13;;;2.30;;
32505;SDS011;18955;51.224;8.482;2022-12-07T15:10:44;7.13;;;2.22;;
32505;SDS011;18955;51.224;8.482;2022-12-07T15:13:10;10.63;;;3.28;;
32505;SDS011;18955;51.224;8.482;2022-12-07T15:15:55;6.50;;;3.67;;
32505;SDS011;18955;51.224;8.482;2022-12-07T15:18:22;7.40;;;3.00;;
32505;SDS011;18955;51.224;8.482;2022-12-07T15:20:49;8.82;;;3.13;;
32505;SDS011;18955;51.224;8.482;2022-12-07T15:25:42;7.80;;;3.20;;
32505;SDS011;18955;51.224;8.482;2022-12-07T15:28:09;3.53;;;2.47;;
32505;SDS011;18955;51.224;8.482;2022-12-07T15:30:38;8.30;;;3.38;;
32505;SDS011;18955;51.224;8.482;2022-12-07T15:33:06;10.93;;;3.63;;
32505;SDS011;18955;51.224;8.482;2022-12-07T15:35:32;10.10;;;2.20;;
32505;SDS011;18955;51.224;8.482;2022-12-07T15:37:58;5.65;;;3.35;;
32505;SDS011;18955;51.224;8.482;2022-12-07T15:40:24;5.75;;;3.17;;
32505;SDS011;18955;51.224;8.482;2022-12-07T15:42:51;9.35;;;2.90;;
32505;SDS011;18955;51.224;8.482;2022-12-07T15:45:17;8.85;;;3.05;;
32505;SDS011;18955;51.224;8.482;2022-12-07T15:47:43;9.60;;;3.30;;
32505;SDS011;18955;51.224;8.482;2022-12-07T15:50:12;9.05;;;2.80;;
32505;SDS011;18955;51.224;8.482;2022-12-07T15:52:39;10.38;;;3.78;;
32505;SDS011;18955;51.224;8.482;2022-12-07T15:55:06;8.23;;;3.70;;
32505;SDS011;18955;51.224;8.482;2022-12-07T16:00:00;5.13;;;3.13;;
32505;SDS011;18955;51.224;8.482;2022-12-07T16:02:29;6.28;;;3.08;;
32505;SDS011;18955;51.224;8.482;2022-12-07T16:04:55;6.78;;;2.97;;
32505;SDS011;18955;51.224;8.482;2022-12-07T16:07:22;5.75;;;3.05;;
32505;SDS011;18955;51.224;8.482;2022-12-07T16:09:48;8.23;;;3.15;;
32505;SDS011;18955;51.224;8.482;2022-12-07T16:14:41;8.45;;;3.60;;
32505;SDS011;18955;51.224;8.482;2022-12-07T16:17:08;11.70;;;4.97;;
32505;SDS011;18955;51.224;8.482;2022-12-07T16:19:35;10.25;;;4.85;;
32505;SDS011;18955;51.224;8.482;2022-12-07T16:22:03;12.88;;;4.78;;
32505;SDS011;18955;51.224;8.482;2022-12-07T16:24:30;11.27;;;5.15;;
32505;SDS011;18955;51.224;8.482;2022-12-07T16:26:57;9.98;;;4.85;;
32505;SDS011;18955;51.224;8.482;2022-12-07T16:29:23;12.65;;;4.47;;
32505;SDS011;18955;51.224;8.482;2022-12-07T16:31:50;13.13;;;5.47;;
32505;SDS011;18955;51.224;8.482;2022-12-07T16:34:17;8.82;;;5.03;;
32505;SDS011;18955;51.224;8.482;2022-12-07T16:36:44;12.35;;;6.03;;
32505;SDS011;18955;51.224;8.482;2022-12-07T16:39:11;10.98;;;5.35;;
32505;SDS011;18955;51.224;8.482;2022-12-07T16:41:37;18.05;;;8.25;;
32505;SDS011;18955;51.224;8.482;2022-12-07T16:44:04;6.32;;;3.60;;
32505;SDS011;18955;51.224;8.482;2022-12-07T16:46:33;7.03;;;4.95;;
32505;SDS011;18955;51.224;8.482;2022-12-07T16:49:01;7.45;;;4.88;;
32505;SDS011;18955;51.224;8.482;2022-12-07T16:53:54;6.85;;;3.00;;
32505;SDS011;18955;51.224;8.482;2022-12-07T16:56:20;6.97;;;3.35;;
32505;SDS011;18955;51.224;8.482;2022-12-07T16:58:47;9.60;;;4.18;;
32505;SDS011;18955;51.224;8.482;2022-12-07T17:01:18;10.38;;;5.20;;
32505;SDS011;18955;51.224;8.482;2022-12-07T17:03:46;5.55;;;3.60;;
32505;SDS011;18955;51.224;8.482;2022-12-07T17:06:19;7.72;;;3.00;;
32505;SDS011;18955;51.224;8.482;2022-12-07T17:08:48;5.88;;;2.92;;
32505;SDS011;18955;51.224;8.482;2022-12-07T17:11:25;8.25;;;3.40;;
32505;SDS011;18955;51.224;8.482;2022-12-07T17:13:54;8.88;;;3.92;;
32505;SDS011;18955;51.224;8.482;2022-12-07T17:16:39;8.95;;;3.60;;
32505;SDS011;18955;51.224;8.482;2022-12-07T17:19:07;9.05;;;4.07;;
32505;SDS011;18955;51.224;8.482;2022-12-07T17:21:35;10.13;;;3.90;;
32505;SDS011;18955;51.224;8.482;2022-12-07T17:24:02;6.88;;;3.80;;
32505;SDS011;18955;51.224;8.482;2022-12-07T17:26:30;8.63;;;3.65;;
32505;SDS011;18955;51.224;8.482;2022-12-07T17:28:56;9.00;;;4.20;;
32505;SDS011;18955;51.224;8.482;2022-12-07T17:31:23;10.18;;;3.83;;
32505;SDS011;18955;51.224;8.482;2022-12-07T17:33:50;13.57;;;3.72;;
32505;SDS011;18955;51.224;8.482;2022-12-07T17:36:20;10.60;;;3.72;;
32505;SDS011;18955;51.224;8.482;2022-12-07T17:38:49;13.23;;;4.50;;
32505;SDS011;18955;51.224;8.482;2022-12-07T17:41:17;10.68;;;6.18;;
32505;SDS011;18955;51.224;8.482;2022-12-07T17:44:04;7.22;;;4.05;;
32505;SDS011;18955;51.224;8.482;2022-12-07T17:46:32;7.40;;;4.43;;
32505;SDS011;18955;51.224;8.482;2022-12-07T17:48:59;10.45;;;3.47;;
32505;SDS011;18955;51.224;8.482;2022-12-07T17:51:26;9.98;;;3.67;;
32505;SDS011;18955;51.224;8.482;2022-12-07T17:54:11;10.23;;;3.80;;